Melissa, Texas
Current Conditions -  °F | °C
As of 2:53 AM on Monday 24 Nov 2014 (Local Time) from KTKI Reporting Station
Clear Clear  
Wind Chill: 42°   Ceiling: Unl
Heat Index: 45°   Visibility: 10mi
Dew Point: 36°   Wind: 6mph
Humidity: 71%   Direction: 290°WNW
Pressure: 29.89"   Gusts: NA
Location:  33.29°N, 96.57°W
Report Text: KTKI 240853Z AUTO 29005KT 10SM CLR 07/02 A2989 RMK AO2 SLP126 T00720022 53031
Loading
Personal Weather Stations






























Interactive Weather Map New forecast layout! Learn more

10-Day Weather Forecast

Advertisements
Track Severe Weather on mobile